sensor_id;sensor_type;location;lat;lon;timestamp;P1;durP1;ratioP1;P2;durP2;ratioP2
23549;SDS011;11953;49.010;8.608;2022-07-29T00:01:58;8.38;;;3.00;;
23549;SDS011;11953;49.010;8.608;2022-07-29T00:04:47;4.60;;;2.60;;
23549;SDS011;11953;49.010;8.608;2022-07-29T00:07:34;4.93;;;2.47;;
23549;SDS011;11953;49.010;8.608;2022-07-29T00:10:20;4.30;;;2.50;;
23549;SDS011;11953;49.010;8.608;2022-07-29T00:13:07;4.15;;;2.65;;
23549;SDS011;11953;49.010;8.608;2022-07-29T00:15:54;5.35;;;2.90;;
23549;SDS011;11953;49.010;8.608;2022-07-29T00:18:48;5.68;;;3.17;;
23549;SDS011;11953;49.010;8.608;2022-07-29T00:21:36;3.85;;;3.25;;
23549;SDS011;11953;49.010;8.608;2022-07-29T00:24:23;5.53;;;2.80;;
23549;SDS011;11953;49.010;8.608;2022-07-29T00:27:09;7.18;;;2.83;;
23549;SDS011;11953;49.010;8.608;2022-07-29T00:29:56;4.18;;;2.72;;
23549;SDS011;11953;49.010;8.608;2022-07-29T00:32:43;5.97;;;2.90;;
23549;SDS011;11953;49.010;8.608;2022-07-29T00:35:30;4.78;;;2.95;;
23549;SDS011;11953;49.010;8.608;2022-07-29T00:38:34;4.20;;;2.90;;
23549;SDS011;11953;49.010;8.608;2022-07-29T00:41:20;5.05;;;2.90;;
23549;SDS011;11953;49.010;8.608;2022-07-29T00:44:07;3.47;;;2.72;;
23549;SDS011;11953;49.010;8.608;2022-07-29T00:46:54;3.40;;;2.95;;
23549;SDS011;11953;49.010;8.608;2022-07-29T00:49:41;4.05;;;2.85;;
23549;SDS011;11953;49.010;8.608;2022-07-29T00:52:28;3.42;;;2.90;;
23549;SDS011;11953;49.010;8.608;2022-07-29T00:55:16;4.40;;;2.67;;
23549;SDS011;11953;49.010;8.608;2022-07-29T00:58:03;4.10;;;2.60;;
23549;SDS011;11953;49.010;8.608;2022-07-29T01:00:51;4.20;;;2.70;;
23549;SDS011;11953;49.010;8.608;2022-07-29T01:03:37;3.55;;;2.50;;
23549;SDS011;11953;49.010;8.608;2022-07-29T01:06:24;5.25;;;2.63;;
23549;SDS011;11953;49.010;8.608;2022-07-29T01:09:11;4.05;;;2.88;;
23549;SDS011;11953;49.010;8.608;2022-07-29T01:12:00;4.95;;;2.85;;
23549;SDS011;11953;49.010;8.608;2022-07-29T01:14:48;3.67;;;2.70;;
23549;SDS011;11953;49.010;8.608;2022-07-29T01:17:36;7.63;;;2.83;;
23549;SDS011;11953;49.010;8.608;2022-07-29T01:20:42;8.07;;;3.10;;
23549;SDS011;11953;49.010;8.608;2022-07-29T01:26:55;5.28;;;3.17;;
23549;SDS011;11953;49.010;8.608;2022-07-29T01:29:52;5.22;;;2.78;;
23549;SDS011;11953;49.010;8.608;2022-07-29T01:32:43;3.87;;;3.10;;
23549;SDS011;11953;49.010;8.608;2022-07-29T01:35:36;7.07;;;2.67;;
23549;SDS011;11953;49.010;8.608;2022-07-29T01:38:25;4.25;;;3.10;;
23549;SDS011;11953;49.010;8.608;2022-07-29T01:41:14;3.40;;;2.75;;
23549;SDS011;11953;49.010;8.608;2022-07-29T01:44:06;3.75;;;3.00;;
23549;SDS011;11953;49.010;8.608;2022-07-29T01:47:02;3.58;;;2.92;;
23549;SDS011;11953;49.010;8.608;2022-07-29T01:49:56;3.22;;;2.92;;
23549;SDS011;11953;49.010;8.608;2022-07-29T01:52:46;4.53;;;3.20;;
23549;SDS011;11953;49.010;8.608;2022-07-29T01:55:40;6.40;;;3.38;;
23549;SDS011;11953;49.010;8.608;2022-07-29T01:58:31;3.88;;;2.83;;
23549;SDS011;11953;49.010;8.608;2022-07-29T02:01:21;4.82;;;3.00;;
23549;SDS011;11953;49.010;8.608;2022-07-29T02:04:10;5.07;;;3.05;;
23549;SDS011;11953;49.010;8.608;2022-07-29T02:07:15;4.53;;;3.00;;
23549;SDS011;11953;49.010;8.608;2022-07-29T02:10:05;7.95;;;3.55;;
23549;SDS011;11953;49.010;8.608;2022-07-29T02:12:54;4.18;;;2.97;;
23549;SDS011;11953;49.010;8.608;2022-07-29T02:15:43;4.70;;;2.70;;
23549;SDS011;11953;49.010;8.608;2022-07-29T02:18:30;3.50;;;2.80;;
23549;SDS011;11953;49.010;8.608;2022-07-29T02:21:21;3.10;;;2.55;;
23549;SDS011;11953;49.010;8.608;2022-07-29T02:24:11;4.53;;;2.75;;
23549;SDS011;11953;49.010;8.608;2022-07-29T02:26:58;3.97;;;2.80;;
23549;SDS011;11953;49.010;8.608;2022-07-29T02:29:47;4.10;;;2.60;;
23549;SDS011;11953;49.010;8.608;2022-07-29T02:32:36;3.85;;;2.58;;
23549;SDS011;11953;49.010;8.608;2022-07-29T02:35:26;3.42;;;2.53;;
23549;SDS011;11953;49.010;8.608;2022-07-29T02:38:20;6.25;;;2.78;;
23549;SDS011;11953;49.010;8.608;2022-07-29T02:41:27;4.35;;;2.55;;
23549;SDS011;11953;49.010;8.608;2022-07-29T02:44:17;5.93;;;2.95;;
23549;SDS011;11953;49.010;8.608;2022-07-29T02:47:07;3.58;;;2.80;;
23549;SDS011;11953;49.010;8.608;2022-07-29T02:50:00;3.58;;;2.85;;
23549;SDS011;11953;49.010;8.608;2022-07-29T02:52:53;4.43;;;2.95;;
23549;SDS011;11953;49.010;8.608;2022-07-29T02:55:45;3.28;;;2.60;;
23549;SDS011;11953;49.010;8.608;2022-07-29T02:58:38;4.28;;;2.70;;
23549;SDS011;11953;49.010;8.608;2022-07-29T03:01:28;3.85;;;2.90;;
23549;SDS011;11953;49.010;8.608;2022-07-29T03:04:19;4.15;;;2.90;;
23549;SDS011;11953;49.010;8.608;2022-07-29T03:07:07;5.82;;;3.30;;
23549;SDS011;11953;49.010;8.608;2022-07-29T03:09:56;4.03;;;3.40;;
23549;SDS011;11953;49.010;8.608;2022-07-29T03:12:45;3.55;;;2.70;;
23549;SDS011;11953;49.010;8.608;2022-07-29T03:15:33;3.33;;;2.70;;
23549;SDS011;11953;49.010;8.608;2022-07-29T03:18:20;4.18;;;2.63;;
23549;SDS011;11953;49.010;8.608;2022-07-29T03:21:08;4.00;;;3.08;;
23549;SDS011;11953;49.010;8.608;2022-07-29T03:23:55;3.85;;;2.47;;
23549;SDS011;11953;49.010;8.608;2022-07-29T03:26:41;3.70;;;2.60;;
23549;SDS011;11953;49.010;8.608;2022-07-29T03:29:30;4.32;;;3.08;;
23549;SDS011;11953;49.010;8.608;2022-07-29T03:32:18;4.88;;;2.58;;
23549;SDS011;11953;49.010;8.608;2022-07-29T03:35:09;4.65;;;3.22;;
23549;SDS011;11953;49.010;8.608;2022-07-29T03:37:55;4.32;;;2.90;;
23549;SDS011;11953;49.010;8.608;2022-07-29T03:40:44;3.67;;;2.90;;
23549;SDS011;11953;49.010;8.608;2022-07-29T03:43:36;5.70;;;2.97;;
23549;SDS011;11953;49.010;8.608;2022-07-29T03:46:35;3.90;;;2.80;;
23549;SDS011;11953;49.010;8.608;2022-07-29T03:49:23;3.85;;;2.83;;
23549;SDS011;11953;49.010;8.608;2022-07-29T03:52:10;5.18;;;2.80;;
23549;SDS011;11953;49.010;8.608;2022-07-29T03:54:57;5.35;;;3.15;;
23549;SDS011;11953;49.010;8.608;2022-07-29T03:57:44;5.50;;;3.35;;
23549;SDS011;11953;49.010;8.608;2022-07-29T04:00:32;4.55;;;2.90;;
23549;SDS011;11953;49.010;8.608;2022-07-29T04:03:21;5.32;;;3.15;;
23549;SDS011;11953;49.010;8.608;2022-07-29T04:06:08;10.52;;;3.65;;
23549;SDS011;11953;49.010;8.608;2022-07-29T04:08:55;8.23;;;3.03;;
23549;SDS011;11953;49.010;8.608;2022-07-29T04:11:42;3.65;;;3.03;;
23549;SDS011;11953;49.010;8.608;2022-07-29T04:14:47;4.65;;;2.85;;
23549;SDS011;11953;49.010;8.608;2022-07-29T04:17:35;4.43;;;3.55;;
23549;SDS011;11953;49.010;8.608;2022-07-29T04:20:23;7.93;;;2.95;;
23549;SDS011;11953;49.010;8.608;2022-07-29T04:23:10;4.40;;;2.63;;
23549;SDS011;11953;49.010;8.608;2022-07-29T04:25:56;6.65;;;3.08;;
23549;SDS011;11953;49.010;8.608;2022-07-29T04:28:43;3.72;;;2.67;;
23549;SDS011;11953;49.010;8.608;2022-07-29T04:31:30;3.35;;;2.58;;
23549;SDS011;11953;49.010;8.608;2022-07-29T04:34:17;3.58;;;2.53;;
23549;SDS011;11953;49.010;8.608;2022-07-29T04:37:06;4.05;;;2.80;;
23549;SDS011;11953;49.010;8.608;2022-07-29T04:39:53;4.20;;;2.90;;
23549;SDS011;11953;49.010;8.608;2022-07-29T04:42:39;3.92;;;2.80;;
23549;SDS011;11953;49.010;8.608;2022-07-29T04:45:30;3.28;;;2.42;;
23549;SDS011;11953;49.010;8.608;2022-07-29T04:48:17;5.53;;;3.40;;
23549;SDS011;11953;49.010;8.608;2022-07-29T04:51:12;5.55;;;2.75;;
23549;SDS011;11953;49.010;8.608;2022-07-29T04:54:00;4.10;;;3.10;;
23549;SDS011;11953;49.010;8.608;2022-07-29T04:56:47;4.70;;;2.83;;
23549;SDS011;11953;49.010;8.608;2022-07-29T04:59:33;4.32;;;2.90;;
23549;SDS011;11953;49.010;8.608;2022-07-29T05:02:20;3.63;;;2.60;;
23549;SDS011;11953;49.010;8.608;2022-07-29T05:05:07;4.28;;;3.00;;
23549;SDS011;11953;49.010;8.608;2022-07-29T05:07:54;4.68;;;2.83;;
23549;SDS011;11953;49.010;8.608;2022-07-29T05:10:42;3.35;;;2.83;;
23549;SDS011;11953;49.010;8.608;2022-07-29T05:13:29;4.40;;;3.30;;
23549;SDS011;11953;49.010;8.608;2022-07-29T05:16:29;3.65;;;2.95;;
23549;SDS011;11953;49.010;8.608;2022-07-29T05:19:16;3.50;;;2.70;;
23549;SDS011;11953;49.010;8.608;2022-07-29T05:22:03;5.30;;;2.45;;
23549;SDS011;11953;49.010;8.608;2022-07-29T05:24:50;7.40;;;3.40;;
23549;SDS011;11953;49.010;8.608;2022-07-29T05:27:38;4.55;;;2.92;;
23549;SDS011;11953;49.010;8.608;2022-07-29T05:30:25;2.92;;;2.63;;
23549;SDS011;11953;49.010;8.608;2022-07-29T05:33:12;5.28;;;2.80;;
23549;SDS011;11953;49.010;8.608;2022-07-29T05:36:18;4.50;;;3.10;;
23549;SDS011;11953;49.010;8.608;2022-07-29T05:39:05;5.20;;;2.80;;
23549;SDS011;11953;49.010;8.608;2022-07-29T05:41:52;7.10;;;2.88;;
23549;SDS011;11953;49.010;8.608;2022-07-29T05:44:39;5.32;;;3.33;;
23549;SDS011;11953;49.010;8.608;2022-07-29T05:47:26;6.40;;;3.00;;
23549;SDS011;11953;49.010;8.608;2022-07-29T05:50:14;5.90;;;3.05;;
23549;SDS011;11953;49.010;8.608;2022-07-29T05:53:00;6.65;;;3.13;;
23549;SDS011;11953;49.010;8.608;2022-07-29T05:56:04;5.20;;;3.50;;
23549;SDS011;11953;49.010;8.608;2022-07-29T05:58:52;4.70;;;3.17;;
23549;SDS011;11953;49.010;8.608;2022-07-29T06:01:40;3.78;;;3.00;;
23549;SDS011;11953;49.010;8.608;2022-07-29T06:04:26;5.38;;;3.50;;
23549;SDS011;11953;49.010;8.608;2022-07-29T06:07:13;6.65;;;3.60;;
23549;SDS011;11953;49.010;8.608;2022-07-29T06:10:01;6.53;;;3.38;;
23549;SDS011;11953;49.010;8.608;2022-07-29T06:12:48;5.88;;;3.40;;
23549;SDS011;11953;49.010;8.608;2022-07-29T06:15:34;6.22;;;3.50;;
23549;SDS011;11953;49.010;8.608;2022-07-29T06:18:23;4.82;;;3.50;;
23549;SDS011;11953;49.010;8.608;2022-07-29T06:21:09;9.45;;;3.40;;
23549;SDS011;11953;49.010;8.608;2022-07-29T06:23:56;4.50;;;3.20;;
23549;SDS011;11953;49.010;8.608;2022-07-29T06:26:43;5.32;;;3.67;;
23549;SDS011;11953;49.010;8.608;2022-07-29T06:29:30;4.68;;;3.10;;
23549;SDS011;11953;49.010;8.608;2022-07-29T06:32:17;5.43;;;3.20;;
23549;SDS011;11953;49.010;8.608;2022-07-29T06:35:08;4.25;;;2.95;;
23549;SDS011;11953;49.010;8.608;2022-07-29T06:38:15;5.38;;;3.28;;
23549;SDS011;11953;49.010;8.608;2022-07-29T06:41:15;5.85;;;2.72;;
23549;SDS011;11953;49.010;8.608;2022-07-29T06:44:02;5.72;;;3.00;;
23549;SDS011;11953;49.010;8.608;2022-07-29T06:46:50;9.48;;;3.28;;
23549;SDS011;11953;49.010;8.608;2022-07-29T06:49:38;3.33;;;2.80;;
23549;SDS011;11953;49.010;8.608;2022-07-29T06:52:26;5.20;;;2.80;;
23549;SDS011;11953;49.010;8.608;2022-07-29T06:55:13;4.55;;;2.85;;
23549;SDS011;11953;49.010;8.608;2022-07-29T06:58:09;3.30;;;2.60;;
23549;SDS011;11953;49.010;8.608;2022-07-29T07:00:56;6.55;;;3.20;;
23549;SDS011;11953;49.010;8.608;2022-07-29T07:03:44;4.50;;;2.78;;
23549;SDS011;11953;49.010;8.608;2022-07-29T07:06:31;7.45;;;3.08;;
23549;SDS011;11953;49.010;8.608;2022-07-29T07:09:18;3.65;;;2.95;;
23549;SDS011;11953;49.010;8.608;2022-07-29T07:12:05;5.72;;;2.80;;
23549;SDS011;11953;49.010;8.608;2022-07-29T07:14:52;4.95;;;2.50;;
23549;SDS011;11953;49.010;8.608;2022-07-29T07:17:38;5.70;;;2.70;;
23549;SDS011;11953;49.010;8.608;2022-07-29T07:20:25;5.18;;;2.58;;
23549;SDS011;11953;49.010;8.608;2022-07-29T07:23:12;5.15;;;2.70;;
23549;SDS011;11953;49.010;8.608;2022-07-29T07:26:00;4.40;;;2.63;;
23549;SDS011;11953;49.010;8.608;2022-07-29T07:28:47;5.75;;;2.53;;
23549;SDS011;11953;49.010;8.608;2022-07-29T07:31:35;3.45;;;2.40;;
23549;SDS011;11953;49.010;8.608;2022-07-29T07:34:23;4.68;;;3.10;;
23549;SDS011;11953;49.010;8.608;2022-07-29T07:37:13;7.60;;;2.63;;
23549;SDS011;11953;49.010;8.608;2022-07-29T07:40:00;6.95;;;2.72;;
23549;SDS011;11953;49.010;8.608;2022-07-29T07:42:49;4.50;;;2.42;;
23549;SDS011;11953;49.010;8.608;2022-07-29T07:45:35;4.15;;;2.55;;
23549;SDS011;11953;49.010;8.608;2022-07-29T07:48:22;4.82;;;2.50;;
23549;SDS011;11953;49.010;8.608;2022-07-29T07:51:09;7.95;;;3.03;;
23549;SDS011;11953;49.010;8.608;2022-07-29T07:53:56;4.57;;;2.70;;
23549;SDS011;11953;49.010;8.608;2022-07-29T07:56:43;3.65;;;2.65;;
23549;SDS011;11953;49.010;8.608;2022-07-29T07:59:33;4.15;;;2.85;;
23549;SDS011;11953;49.010;8.608;2022-07-29T08:02:20;5.03;;;2.90;;
23549;SDS011;11953;49.010;8.608;2022-07-29T08:05:07;3.53;;;2.58;;
23549;SDS011;11953;49.010;8.608;2022-07-29T08:07:56;7.38;;;2.88;;
23549;SDS011;11953;49.010;8.608;2022-07-29T08:10:43;5.68;;;2.63;;
23549;SDS011;11953;49.010;8.608;2022-07-29T08:13:40;3.95;;;2.47;;
23549;SDS011;11953;49.010;8.608;2022-07-29T08:16:29;7.93;;;2.80;;
23549;SDS011;11953;49.010;8.608;2022-07-29T08:19:15;7.22;;;3.05;;
23549;SDS011;11953;49.010;8.608;2022-07-29T08:22:02;5.57;;;2.70;;
23549;SDS011;11953;49.010;8.608;2022-07-29T08:24:49;5.32;;;2.90;;
23549;SDS011;11953;49.010;8.608;2022-07-29T08:27:39;6.18;;;2.88;;
23549;SDS011;11953;49.010;8.608;2022-07-29T08:30:28;5.70;;;2.50;;
23549;SDS011;11953;49.010;8.608;2022-07-29T08:33:16;4.90;;;2.90;;
23549;SDS011;11953;49.010;8.608;2022-07-29T08:36:04;7.80;;;2.80;;
23549;SDS011;11953;49.010;8.608;2022-07-29T08:38:51;4.10;;;2.60;;
23549;SDS011;11953;49.010;8.608;2022-07-29T08:41:38;5.82;;;2.95;;
23549;SDS011;11953;49.010;8.608;2022-07-29T08:44:42;4.88;;;2.90;;
23549;SDS011;11953;49.010;8.608;2022-07-29T08:47:29;5.15;;;2.70;;
23549;SDS011;11953;49.010;8.608;2022-07-29T08:50:17;7.72;;;2.90;;
23549;SDS011;11953;49.010;8.608;2022-07-29T08:53:04;5.70;;;2.38;;
23549;SDS011;11953;49.010;8.608;2022-07-29T08:55:53;6.57;;;2.25;;
23549;SDS011;11953;49.010;8.608;2022-07-29T08:58:40;7.35;;;2.25;;
23549;SDS011;11953;49.010;8.608;2022-07-29T09:01:34;3.42;;;2.30;;
23549;SDS011;11953;49.010;8.608;2022-07-29T09:04:30;7.32;;;2.97;;
23549;SDS011;11953;49.010;8.608;2022-07-29T09:07:21;4.03;;;2.30;;
23549;SDS011;11953;49.010;8.608;2022-07-29T09:10:18;6.90;;;2.38;;
23549;SDS011;11953;49.010;8.608;2022-07-29T09:13:05;6.72;;;2.08;;
23549;SDS011;11953;49.010;8.608;2022-07-29T09:15:52;4.70;;;2.20;;
23549;SDS011;11953;49.010;8.608;2022-07-29T09:18:40;5.22;;;2.25;;
23549;SDS011;11953;49.010;8.608;2022-07-29T09:21:27;8.13;;;2.50;;
23549;SDS011;11953;49.010;8.608;2022-07-29T09:24:49;6.63;;;2.10;;
23549;SDS011;11953;49.010;8.608;2022-07-29T09:27:35;4.88;;;2.05;;
23549;SDS011;11953;49.010;8.608;2022-07-29T09:30:22;4.30;;;1.90;;
23549;SDS011;11953;49.010;8.608;2022-07-29T09:33:15;5.47;;;2.13;;
23549;SDS011;11953;49.010;8.608;2022-07-29T09:36:03;9.02;;;2.20;;
23549;SDS011;11953;49.010;8.608;2022-07-29T09:38:56;5.65;;;2.00;;
23549;SDS011;11953;49.010;8.608;2022-07-29T09:41:46;7.90;;;2.47;;
23549;SDS011;11953;49.010;8.608;2022-07-29T09:44:41;5.90;;;1.83;;
23549;SDS011;11953;49.010;8.608;2022-07-29T09:47:40;7.22;;;1.83;;
23549;SDS011;11953;49.010;8.608;2022-07-29T09:50:36;3.30;;;1.80;;
23549;SDS011;11953;49.010;8.608;2022-07-29T09:53:31;7.85;;;2.28;;
23549;SDS011;11953;49.010;8.608;2022-07-29T09:56:19;4.65;;;1.90;;
23549;SDS011;11953;49.010;8.608;2022-07-29T09:59:07;3.60;;;2.05;;
23549;SDS011;11953;49.010;8.608;2022-07-29T10:01:56;4.28;;;1.90;;
23549;SDS011;11953;49.010;8.608;2022-07-29T10:04:43;3.15;;;1.90;;
23549;SDS011;11953;49.010;8.608;2022-07-29T10:07:42;6.45;;;1.90;;
23549;SDS011;11953;49.010;8.608;2022-07-29T10:10:37;5.03;;;2.08;;
23549;SDS011;11953;49.010;8.608;2022-07-29T10:13:25;4.55;;;1.98;;
23549;SDS011;11953;49.010;8.608;2022-07-29T10:16:13;7.30;;;1.92;;
23549;SDS011;11953;49.010;8.608;2022-07-29T10:19:01;2.90;;;1.65;;
23549;SDS011;11953;49.010;8.608;2022-07-29T10:21:48;6.78;;;2.08;;
23549;SDS011;11953;49.010;8.608;2022-07-29T10:24:42;4.93;;;1.90;;
23549;SDS011;11953;49.010;8.608;2022-07-29T10:27:29;7.25;;;2.03;;
23549;SDS011;11953;49.010;8.608;2022-07-29T10:30:17;2.42;;;1.83;;
23549;SDS011;11953;49.010;8.608;2022-07-29T10:33:17;6.03;;;1.88;;
23549;SDS011;11953;49.010;8.608;2022-07-29T10:36:17;7.82;;;2.20;;
23549;SDS011;11953;49.010;8.608;2022-07-29T10:39:29;4.65;;;2.28;;
23549;SDS011;11953;49.010;8.608;2022-07-29T10:42:33;5.00;;;1.92;;
23549;SDS011;11953;49.010;8.608;2022-07-29T10:45:27;3.75;;;1.90;;
23549;SDS011;11953;49.010;8.608;2022-07-29T10:48:16;5.93;;;2.17;;
23549;SDS011;11953;49.010;8.608;2022-07-29T10:51:07;6.38;;;2.28;;
23549;SDS011;11953;49.010;8.608;2022-07-29T10:53:56;4.18;;;1.98;;
23549;SDS011;11953;49.010;8.608;2022-07-29T10:56:45;5.30;;;2.05;;
23549;SDS011;11953;49.010;8.608;2022-07-29T10:59:31;4.70;;;1.90;;
23549;SDS011;11953;49.010;8.608;2022-07-29T11:02:40;8.07;;;2.05;;
23549;SDS011;11953;49.010;8.608;2022-07-29T11:05:31;4.65;;;1.83;;
23549;SDS011;11953;49.010;8.608;2022-07-29T11:08:38;6.72;;;1.85;;
23549;SDS011;11953;49.010;8.608;2022-07-29T11:11:32;5.25;;;2.10;;
23549;SDS011;11953;49.010;8.608;2022-07-29T11:14:20;3.30;;;1.90;;
23549;SDS011;11953;49.010;8.608;2022-07-29T11:20:52;4.72;;;1.90;;
23549;SDS011;11953;49.010;8.608;2022-07-29T11:23:40;5.85;;;2.22;;
23549;SDS011;11953;49.010;8.608;2022-07-29T11:26:29;7.88;;;1.67;;
23549;SDS011;11953;49.010;8.608;2022-07-29T11:29:19;6.18;;;2.22;;
23549;SDS011;11953;49.010;8.608;2022-07-29T11:32:11;2.80;;;1.75;;
23549;SDS011;11953;49.010;8.608;2022-07-29T11:35:10;5.05;;;1.50;;
23549;SDS011;11953;49.010;8.608;2022-07-29T11:41:19;6.40;;;1.70;;
23549;SDS011;11953;49.010;8.608;2022-07-29T11:44:11;5.25;;;1.90;;
23549;SDS011;11953;49.010;8.608;2022-07-29T11:47:02;3.22;;;1.85;;
23549;SDS011;11953;49.010;8.608;2022-07-29T11:49:50;4.30;;;2.10;;
23549;SDS011;11953;49.010;8.608;2022-07-29T11:52:44;5.15;;;1.90;;
23549;SDS011;11953;49.010;8.608;2022-07-29T11:55:35;3.63;;;1.75;;
23549;SDS011;11953;49.010;8.608;2022-07-29T11:58:36;5.50;;;1.90;;
23549;SDS011;11953;49.010;8.608;2022-07-29T12:01:24;2.97;;;2.10;;
23549;SDS011;11953;49.010;8.608;2022-07-29T12:04:12;4.20;;;1.60;;
23549;SDS011;11953;49.010;8.608;2022-07-29T12:06:58;3.55;;;1.77;;
23549;SDS011;11953;49.010;8.608;2022-07-29T12:09:49;5.07;;;1.63;;
23549;SDS011;11953;49.010;8.608;2022-07-29T12:12:42;3.65;;;1.75;;
23549;SDS011;11953;49.010;8.608;2022-07-29T12:15:29;5.53;;;2.00;;
23549;SDS011;11953;49.010;8.608;2022-07-29T12:18:31;6.40;;;1.85;;
23549;SDS011;11953;49.010;8.608;2022-07-29T12:21:18;3.00;;;1.48;;
23549;SDS011;11953;49.010;8.608;2022-07-29T12:24:09;5.43;;;2.00;;
23549;SDS011;11953;49.010;8.608;2022-07-29T12:26:57;3.05;;;1.73;;
23549;SDS011;11953;49.010;8.608;2022-07-29T12:29:55;4.20;;;1.98;;
23549;SDS011;11953;49.010;8.608;2022-07-29T12:32:43;5.22;;;1.90;;
23549;SDS011;11953;49.010;8.608;2022-07-29T12:35:31;2.58;;;1.48;;
23549;SDS011;11953;49.010;8.608;2022-07-29T12:38:18;2.50;;;1.73;;
23549;SDS011;11953;49.010;8.608;2022-07-29T12:41:06;3.45;;;2.17;;
23549;SDS011;11953;49.010;8.608;2022-07-29T12:43:53;6.28;;;1.98;;
23549;SDS011;11953;49.010;8.608;2022-07-29T12:46:42;4.25;;;1.83;;
23549;SDS011;11953;49.010;8.608;2022-07-29T12:49:31;2.55;;;1.40;;
23549;SDS011;11953;49.010;8.608;2022-07-29T12:52:26;4.32;;;1.80;;
23549;SDS011;11953;49.010;8.608;2022-07-29T12:55:13;4.15;;;1.70;;
23549;SDS011;11953;49.010;8.608;2022-07-29T12:58:00;8.10;;;1.60;;
23549;SDS011;11953;49.010;8.608;2022-07-29T13:00:57;6.53;;;1.70;;
23549;SDS011;11953;49.010;8.608;2022-07-29T13:04:02;5.53;;;1.40;;
23549;SDS011;11953;49.010;8.608;2022-07-29T13:06:49;4.78;;;1.40;;
23549;SDS011;11953;49.010;8.608;2022-07-29T13:09:45;2.67;;;1.60;;
23549;SDS011;11953;49.010;8.608;2022-07-29T13:12:32;2.63;;;1.63;;
23549;SDS011;11953;49.010;8.608;2022-07-29T13:15:19;3.47;;;1.38;;
23549;SDS011;11953;49.010;8.608;2022-07-29T13:21:16;5.22;;;1.65;;
23549;SDS011;11953;49.010;8.608;2022-07-29T13:24:03;3.92;;;1.50;;
23549;SDS011;11953;49.010;8.608;2022-07-29T13:26:50;4.22;;;1.30;;
23549;SDS011;11953;49.010;8.608;2022-07-29T13:29:37;2.72;;;1.40;;
23549;SDS011;11953;49.010;8.608;2022-07-29T13:32:25;2.58;;;1.52;;
23549;SDS011;11953;49.010;8.608;2022-07-29T13:35:13;2.47;;;1.27;;
23549;SDS011;11953;49.010;8.608;2022-07-29T13:38:01;4.38;;;1.20;;
23549;SDS011;11953;49.010;8.608;2022-07-29T13:40:48;3.92;;;1.20;;
23549;SDS011;11953;49.010;8.608;2022-07-29T13:43:35;3.28;;;1.20;;
23549;SDS011;11953;49.010;8.608;2022-07-29T13:46:22;10.05;;;1.25;;
23549;SDS011;11953;49.010;8.608;2022-07-29T13:49:09;2.97;;;1.27;;
23549;SDS011;11953;49.010;8.608;2022-07-29T13:51:56;5.93;;;1.27;;
23549;SDS011;11953;49.010;8.608;2022-07-29T13:54:45;2.55;;;1.25;;
23549;SDS011;11953;49.010;8.608;2022-07-29T13:57:32;4.68;;;1.30;;
23549;SDS011;11953;49.010;8.608;2022-07-29T14:00:19;3.42;;;1.13;;
23549;SDS011;11953;49.010;8.608;2022-07-29T14:03:05;7.60;;;1.55;;
23549;SDS011;11953;49.010;8.608;2022-07-29T14:05:52;2.72;;;1.02;;
23549;SDS011;11953;49.010;8.608;2022-07-29T14:08:38;3.00;;;1.33;;
23549;SDS011;11953;49.010;8.608;2022-07-29T14:11:26;4.55;;;1.35;;
23549;SDS011;11953;49.010;8.608;2022-07-29T14:14:13;2.22;;;1.00;;
23549;SDS011;11953;49.010;8.608;2022-07-29T14:16:59;3.42;;;1.00;;
23549;SDS011;11953;49.010;8.608;2022-07-29T14:19:47;4.05;;;1.10;;
23549;SDS011;11953;49.010;8.608;2022-07-29T14:22:34;2.88;;;1.10;;
23549;SDS011;11953;49.010;8.608;2022-07-29T14:25:26;2.20;;;1.15;;
23549;SDS011;11953;49.010;8.608;2022-07-29T14:28:14;2.70;;;1.10;;
23549;SDS011;11953;49.010;8.608;2022-07-29T14:31:00;3.37;;;1.20;;
23549;SDS011;11953;49.010;8.608;2022-07-29T14:33:47;3.38;;;0.90;;
23549;SDS011;11953;49.010;8.608;2022-07-29T14:36:34;2.30;;;1.20;;
23549;SDS011;11953;49.010;8.608;2022-07-29T14:39:21;3.67;;;1.00;;
23549;SDS011;11953;49.010;8.608;2022-07-29T14:42:15;4.85;;;1.23;;
23549;SDS011;11953;49.010;8.608;2022-07-29T14:45:03;5.35;;;1.10;;
23549;SDS011;11953;49.010;8.608;2022-07-29T14:47:51;5.32;;;1.08;;
23549;SDS011;11953;49.010;8.608;2022-07-29T14:50:41;1.77;;;1.23;;
23549;SDS011;11953;49.010;8.608;2022-07-29T14:53:28;3.22;;;1.20;;
23549;SDS011;11953;49.010;8.608;2022-07-29T14:56:15;5.63;;;1.30;;
23549;SDS011;11953;49.010;8.608;2022-07-29T14:59:21;4.78;;;1.20;;
23549;SDS011;11953;49.010;8.608;2022-07-29T15:02:09;3.72;;;1.10;;
23549;SDS011;11953;49.010;8.608;2022-07-29T15:04:57;3.00;;;1.00;;
23549;SDS011;11953;49.010;8.608;2022-07-29T15:07:43;5.47;;;1.38;;
23549;SDS011;11953;49.010;8.608;2022-07-29T15:10:30;3.60;;;1.20;;
23549;SDS011;11953;49.010;8.608;2022-07-29T15:13:17;5.70;;;0.95;;
23549;SDS011;11953;49.010;8.608;2022-07-29T15:16:04;4.22;;;1.00;;
23549;SDS011;11953;49.010;8.608;2022-07-29T15:18:53;1.88;;;1.00;;
23549;SDS011;11953;49.010;8.608;2022-07-29T15:21:45;2.97;;;1.20;;
23549;SDS011;11953;49.010;8.608;2022-07-29T15:24:33;3.53;;;1.20;;
23549;SDS011;11953;49.010;8.608;2022-07-29T15:27:20;2.97;;;1.20;;
23549;SDS011;11953;49.010;8.608;2022-07-29T15:30:06;6.18;;;1.20;;
23549;SDS011;11953;49.010;8.608;2022-07-29T15:33:11;2.53;;;1.00;;
23549;SDS011;11953;49.010;8.608;2022-07-29T15:35:59;3.88;;;1.10;;
23549;SDS011;11953;49.010;8.608;2022-07-29T15:38:46;1.98;;;0.98;;
23549;SDS011;11953;49.010;8.608;2022-07-29T15:41:35;4.60;;;1.10;;
23549;SDS011;11953;49.010;8.608;2022-07-29T15:44:22;3.05;;;0.90;;
23549;SDS011;11953;49.010;8.608;2022-07-29T15:47:08;4.22;;;1.15;;
23549;SDS011;11953;49.010;8.608;2022-07-29T15:49:55;6.13;;;0.98;;
23549;SDS011;11953;49.010;8.608;2022-07-29T15:52:42;3.47;;;1.10;;
23549;SDS011;11953;49.010;8.608;2022-07-29T15:55:29;3.75;;;0.85;;
23549;SDS011;11953;49.010;8.608;2022-07-29T15:58:16;1.98;;;1.00;;
23549;SDS011;11953;49.010;8.608;2022-07-29T16:01:02;6.78;;;0.95;;
23549;SDS011;11953;49.010;8.608;2022-07-29T16:03:49;3.35;;;1.00;;
23549;SDS011;11953;49.010;8.608;2022-07-29T16:06:36;4.25;;;1.00;;
23549;SDS011;11953;49.010;8.608;2022-07-29T16:09:24;4.30;;;1.10;;
23549;SDS011;11953;49.010;8.608;2022-07-29T16:12:12;3.78;;;1.08;;
23549;SDS011;11953;49.010;8.608;2022-07-29T16:14:59;2.00;;;1.08;;
23549;SDS011;11953;49.010;8.608;2022-07-29T16:17:53;4.90;;;1.10;;
23549;SDS011;11953;49.010;8.608;2022-07-29T16:20:41;3.53;;;1.17;;
23549;SDS011;11953;49.010;8.608;2022-07-29T16:23:28;3.33;;;1.58;;
23549;SDS011;11953;49.010;8.608;2022-07-29T16:26:17;1.98;;;1.00;;
23549;SDS011;11953;49.010;8.608;2022-07-29T16:29:04;3.55;;;0.80;;
23549;SDS011;11953;49.010;8.608;2022-07-29T16:31:51;2.55;;;1.08;;
23549;SDS011;11953;49.010;8.608;2022-07-29T16:34:38;2.58;;;0.95;;
23549;SDS011;11953;49.010;8.608;2022-07-29T16:37:25;4.95;;;1.10;;
23549;SDS011;11953;49.010;8.608;2022-07-29T16:40:17;4.35;;;0.93;;
23549;SDS011;11953;49.010;8.608;2022-07-29T16:43:05;3.05;;;0.70;;
23549;SDS011;11953;49.010;8.608;2022-07-29T16:45:52;2.20;;;0.98;;
23549;SDS011;11953;49.010;8.608;2022-07-29T16:48:39;2.17;;;0.90;;
23549;SDS011;11953;49.010;8.608;2022-07-29T16:51:26;3.42;;;0.90;;
23549;SDS011;11953;49.010;8.608;2022-07-29T16:54:13;2.25;;;0.98;;
23549;SDS011;11953;49.010;8.608;2022-07-29T16:57:00;4.93;;;1.13;;
23549;SDS011;11953;49.010;8.608;2022-07-29T16:59:49;2.22;;;0.80;;
23549;SDS011;11953;49.010;8.608;2022-07-29T17:02:36;2.70;;;1.13;;
23549;SDS011;11953;49.010;8.608;2022-07-29T17:05:23;2.72;;;0.90;;
23549;SDS011;11953;49.010;8.608;2022-07-29T17:08:10;2.85;;;1.13;;
23549;SDS011;11953;49.010;8.608;2022-07-29T17:10:57;4.85;;;1.05;;
23549;SDS011;11953;49.010;8.608;2022-07-29T17:13:44;2.05;;;1.10;;
23549;SDS011;11953;49.010;8.608;2022-07-29T17:16:33;1.80;;;1.00;;